DW8453 Bekkjarvik NO current weather conditions

sailwx.info

Wind from 172 at 13 knots gusting 13

Air temperature 4.4° C
Dewpoint -1.8° C

Last reported at 2016-Feb-09 08:33 UTC.
Time now 2016-Feb-10 08:41 UTC

Location: N 60°01' E 005°12'.
View on Google Maps.

See reports from other nearby stations

  
Tides and Currents Weather Stations Pressure Air Temp Water Temp Dewpoint Dewpoint Depression Visibility Wind Speed Wind Dir Waves Ship Positions
date/time (UTC)wind fromknots sea level pressurealtimeterstation pressurevisibilityair tempwater tempwave heightnotes
2016-Feb-09 08:33 172 13 gusting 13 4.4
2016-Feb-09 03:38 176 6 gusting 7 4.4
2016-Feb-09 03:33 166 5 gusting 6 4.4
2016-Feb-09 03:28 170 5 gusting 8 5.0
2016-Feb-09 03:23 182 6 gusting 10 5.0
2016-Feb-09 03:13 178 6 gusting 8 5.0
2016-Feb-09 03:08 177 6 gusting 8 5.0
2016-Feb-09 03:03 178 7 gusting 12 5.0
2016-Feb-09 02:53 172 6 gusting 8 5.0
2016-Feb-09 02:48 190 6 gusting 8 5.0
2016-Feb-09 02:43 188 6 gusting 10 5.0
2016-Feb-09 02:33 205 4 gusting 10 5.0
2016-Feb-09 02:23 175 6 gusting 8 5.0
2016-Feb-09 02:13 185 6 gusting 10 5.0
2016-Feb-09 02:08 164 2 gusting 10 5.0
2016-Feb-09 02:03 165 2 gusting 7 5.0
2016-Feb-09 01:53 174 1 gusting 7 5.0
2016-Feb-09 01:38 169 0 gusting 7 5.0
2016-Feb-09 01:28 159 5.0
2016-Feb-09 01:23 183 5.0
2016-Feb-09 01:18 159 5.0
2016-Feb-09 01:13 167 5.0
2016-Feb-09 01:08 172 5.0
2016-Feb-09 01:03 177 5.0
2016-Feb-09 00:58 155 5.0
2016-Feb-09 00:53 169 5.0
2016-Feb-09 00:48 161 5.0
2016-Feb-09 00:43 177 5.0
2016-Feb-09 00:38 175 5.0
2016-Feb-09 00:33 180 5.0
2016-Feb-09 00:28 163 5.0
2016-Feb-09 00:23 158 5.0
2016-Feb-09 00:18 156 4.4
2016-Feb-09 00:13 159 4.4
2016-Feb-09 00:08 160 4.4
2016-Feb-09 00:03 176 4.4
2016-Feb-08 23:58 171 2 gusting 6 4.4
2016-Feb-08 23:53 145 0 gusting 5 4.4
2016-Feb-08 23:48 161 4.4
2016-Feb-08 23:43 154 4.4
2016-Feb-08 23:38 189 4.4
2016-Feb-08 23:33 163 0 gusting 10 4.4
2016-Feb-08 23:28 174 2 gusting 7 4.4
2016-Feb-08 23:23 175 1 gusting 6 5.0
2016-Feb-08 23:18 185 0 gusting 6 5.0
2016-Feb-08 23:13 166 2 gusting 6 4.4
2016-Feb-08 23:08 142 7 gusting 10 4.4
2016-Feb-08 23:03 187 6 gusting 10 4.4
2016-Feb-08 22:58 180 7 gusting 10 4.4
2016-Feb-08 22:53 174 6 gusting 10 4.4
2016-Feb-08 22:48 136 7 gusting 8 4.4
2016-Feb-08 22:43 153 7 gusting 8 4.4
2016-Feb-08 22:38 167 6 gusting 10 4.4
2016-Feb-08 22:33 160 6 gusting 8 4.4
2016-Feb-08 22:28 162 6 gusting 8 4.4
2016-Feb-08 22:23 167 7 gusting 11 4.4
2016-Feb-08 22:18 141 7 gusting 10 4.4
2016-Feb-08 22:13 167 7 gusting 11 4.4
2016-Feb-08 22:08 173 7 gusting 11 4.4
2016-Feb-08 22:03 183 7 gusting 10 4.4
2016-Feb-08 21:58 170 7 gusting 10 3.9
2016-Feb-08 21:53 185 6 gusting 11 3.9
2016-Feb-08 21:48 174 8 gusting 12 4.4
2016-Feb-08 21:43 -0.0
2016-Feb-08 19:18 172 13 gusting 13 4.4
2016-Feb-08 18:18 158 1 gusting 0 5.6
2016-Feb-08 18:13 158 1 gusting 0 5.6
2016-Feb-08 18:08 158 1 gusting 0 5.6
2016-Feb-08 18:03 158 1 gusting 0 5.6
2016-Feb-08 17:58 158 1 gusting 0 5.6
2016-Feb-08 17:53 158 1 gusting 0 5.6
2016-Feb-08 17:48 158 1 gusting 0 5.6
2016-Feb-08 17:43 158 1 gusting 0 5.6
2016-Feb-08 17:38 158 1 gusting 0 5.6
2016-Feb-08 17:33 158 1 gusting 0 5.6
2016-Feb-08 17:28 158 1 gusting 0 5.6
2016-Feb-08 17:23 158 1 gusting 0 5.6
2016-Feb-08 17:18 158 1 gusting 0 5.6
2016-Feb-08 17:13 180 0 6.1
2016-Feb-08 14:38 191 7 gusting 11 5.6
2016-Feb-08 14:33 180 4 5.6
2016-Feb-08 14:28 180 1 5.6
2016-Feb-08 14:23 164 2 gusting 10 5.6
2016-Feb-08 14:18 224 7 gusting 12 5.6
2016-Feb-08 14:13 180 1 gusting 12 5.6
2016-Feb-08 14:08 182 6.1
2016-Feb-08 14:03 137 6.1
2016-Feb-08 13:58 156 2 gusting 6 6.1
2016-Feb-08 13:53 180 0 6.1
2016-Feb-08 13:38 145 2 gusting 7 6.1
2016-Feb-08 13:33 195 3 gusting 8 6.1
2016-Feb-08 13:28 158 6 gusting 11 6.1
2016-Feb-08 13:23 164 2 gusting 7 6.1
2016-Feb-08 13:18 160 0 gusting 8 6.7
2016-Feb-08 13:13 158 2 gusting 7 6.1
2016-Feb-08 13:08 161 4 gusting 7 6.1
2016-Feb-08 13:03 197 8 gusting 13 6.7
2016-Feb-08 12:58 195 8 gusting 11 6.7
2016-Feb-08 12:53 150 10 gusting 13 6.7
2016-Feb-08 12:48 192 6 gusting 10 6.7
2016-Feb-08 12:43 180 7 gusting 10 6.7
2016-Feb-08 12:38 156 7 gusting 8 6.7
2016-Feb-08 12:33 184 6 gusting 8 6.7
2016-Feb-08 12:28 150 8 gusting 10 6.7
2016-Feb-08 12:23 180 11 gusting 10 6.7
2016-Feb-08 12:18 164 10 gusting 11 6.7
2016-Feb-08 12:13 180 11 gusting 10 6.7
2016-Feb-08 12:08 153 8 gusting 11 6.7
2016-Feb-08 12:03 160 8 gusting 10 6.1
2016-Feb-08 11:58 152 12 gusting 13 6.1
2016-Feb-08 11:53 180 13 gusting 13 6.1
2016-Feb-08 11:48 180 9 gusting 12 6.1
2016-Feb-08 11:43 158 10 gusting 13 6.1
2016-Feb-08 11:38 148 12 gusting 14 6.1
2016-Feb-08 11:33 167 13 gusting 14 6.1
2016-Feb-08 11:28 172 15 gusting 13 6.1
2016-Feb-08 11:23 172 14 gusting 13 5.6
2016-Feb-08 11:18 180 10 gusting 12 5.6
2016-Feb-08 11:08 176 10 gusting 12 5.6
2016-Feb-08 11:03 179 13 gusting 13 5.6
2016-Feb-08 10:58 180 13 gusting 12 5.6
2016-Feb-08 10:53 158 13 gusting 13 5.0
2016-Feb-08 10:48 167 10 gusting 13 5.0
2016-Feb-08 10:43 146 10 gusting 12 5.0
2016-Feb-08 10:38 158 6 gusting 13 5.0
2016-Feb-08 10:33 171 11 gusting 13 5.0
2016-Feb-08 10:28 173 15 gusting 15 5.0
2016-Feb-08 10:23 186 10 gusting 12 5.0
2016-Feb-08 10:18 145 13 gusting 13 5.0
2016-Feb-08 10:13 161 10 gusting 12 5.0
2016-Feb-08 10:08 135 8 gusting 10 5.0
2016-Feb-08 10:03 156 13 gusting 13 5.0
2016-Feb-08 09:58 142 11 gusting 12 5.0
2016-Feb-08 09:53 127 13 gusting 13 5.0
2016-Feb-08 09:48 158 15 gusting 14 5.6
2016-Feb-08 09:43 147 15 gusting 14 5.6
2016-Feb-08 09:38 160 10 gusting 12 5.6
2016-Feb-08 09:33 164 11 gusting 13 5.6
2016-Feb-08 09:28 164 11 gusting 13 5.6
2016-Feb-08 09:23 172 10 gusting 13 5.6
2016-Feb-08 09:18 128 10 gusting 13 5.6
2016-Feb-08 09:13 142 11 gusting 13 5.6
2016-Feb-08 09:08 135 12 gusting 13 5.6
2016-Feb-08 09:03 135 9 gusting 12 6.1
2016-Feb-08 08:58 144 10 gusting 11 6.1
2016-Feb-08 08:53 144 10 gusting 13 6.1
2016-Feb-08 08:48 168 12 gusting 13 6.1
2016-Feb-08 08:43 146 11 gusting 13 6.1
2016-Feb-08 08:38 146 9 gusting 12 6.1
2016-Feb-08 08:33 148 9 gusting 13 6.1
2016-Feb-08 08:28 158 10 gusting 13 6.1
2016-Feb-08 08:23 118 6 gusting 7 6.1
2016-Feb-08 08:18 140 7 gusting 11 6.1
2016-Feb-08 08:13 178 12 gusting 13 6.1
2016-Feb-08 08:08 173 10 gusting 11 6.1
2016-Feb-08 08:03 132 8 gusting 10 5.6